sensor_id;sensor_type;location;lat;lon;timestamp;pressure;altitude;pressure_sealevel;temperature;humidity
10832;BME280;5469;48.574;8.768;2022-12-18T00:01:44;95756.13;;;-4.60;59.48
10832;BME280;5469;48.574;8.768;2022-12-18T00:04:22;95754.22;;;-4.58;59.98
10832;BME280;5469;48.574;8.768;2022-12-18T00:06:57;95751.06;;;-4.70;59.67
10832;BME280;5469;48.574;8.768;2022-12-18T00:09:33;95746.97;;;-4.80;59.49
10832;BME280;5469;48.574;8.768;2022-12-18T00:12:09;95750.78;;;-4.67;59.75
10832;BME280;5469;48.574;8.768;2022-12-18T00:14:44;95748.34;;;-4.68;59.97
10832;BME280;5469;48.574;8.768;2022-12-18T00:17:19;95756.00;;;-5.81;63.57
10832;BME280;5469;48.574;8.768;2022-12-18T00:19:54;95756.41;;;-5.32;61.51
10832;BME280;5469;48.574;8.768;2022-12-18T00:22:29;95747.19;;;-5.08;61.59
10832;BME280;5469;48.574;8.768;2022-12-18T00:25:07;95746.88;;;-5.05;61.31
10832;BME280;5469;48.574;8.768;2022-12-18T00:27:42;95747.44;;;-4.85;61.31
10832;BME280;5469;48.574;8.768;2022-12-18T00:30:17;95752.50;;;-4.75;61.57
10832;BME280;5469;48.574;8.768;2022-12-18T00:32:52;95752.84;;;-5.05;60.73
10832;BME280;5469;48.574;8.768;2022-12-18T00:35:27;95754.66;;;-4.97;60.51
10832;BME280;5469;48.574;8.768;2022-12-18T00:38:02;95746.88;;;-5.05;60.27
10832;BME280;5469;48.574;8.768;2022-12-18T00:40:41;95752.44;;;-4.92;60.27
10832;BME280;5469;48.574;8.768;2022-12-18T00:43:16;95754.34;;;-4.94;59.86
10832;BME280;5469;48.574;8.768;2022-12-18T00:45:52;95757.59;;;-4.92;61.12
10832;BME280;5469;48.574;8.768;2022-12-18T00:48:27;95755.28;;;-5.03;60.34
10832;BME280;5469;48.574;8.768;2022-12-18T00:51:01;95753.34;;;-5.01;60.49
10832;BME280;5469;48.574;8.768;2022-12-18T00:53:36;95751.09;;;-4.96;60.20
10832;BME280;5469;48.574;8.768;2022-12-18T00:56:13;95756.28;;;-4.96;60.25
10832;BME280;5469;48.574;8.768;2022-12-18T00:58:48;95755.31;;;-4.95;60.40
10832;BME280;5469;48.574;8.768;2022-12-18T01:01:23;95756.97;;;-4.86;60.31
10832;BME280;5469;48.574;8.768;2022-12-18T01:03:58;95757.09;;;-4.95;60.32
10832;BME280;5469;48.574;8.768;2022-12-18T01:06:33;95750.19;;;-4.87;61.29
10832;BME280;5469;48.574;8.768;2022-12-18T01:09:08;95748.88;;;-4.91;60.89
10832;BME280;5469;48.574;8.768;2022-12-18T01:11:44;95750.81;;;-4.93;61.73
10832;BME280;5469;48.574;8.768;2022-12-18T01:14:19;95756.53;;;-5.07;61.59
10832;BME280;5469;48.574;8.768;2022-12-18T01:16:54;95755.53;;;-5.14;61.68
10832;BME280;5469;48.574;8.768;2022-12-18T01:19:29;95765.78;;;-5.66;62.22
10832;BME280;5469;48.574;8.768;2022-12-18T01:22:04;95768.84;;;-6.07;63.48
10832;BME280;5469;48.574;8.768;2022-12-18T01:24:39;95756.56;;;-5.51;62.21
10832;BME280;5469;48.574;8.768;2022-12-18T01:27:17;95742.81;;;-5.34;61.94
10832;BME280;5469;48.574;8.768;2022-12-18T01:29:52;95751.09;;;-5.48;62.34
10832;BME280;5469;48.574;8.768;2022-12-18T01:32:28;95750.66;;;-5.17;61.91
10832;BME280;5469;48.574;8.768;2022-12-18T01:35:04;95753.00;;;-5.50;61.22
10832;BME280;5469;48.574;8.768;2022-12-18T01:37:39;95752.56;;;-5.63;61.99
10832;BME280;5469;48.574;8.768;2022-12-18T01:40:14;95757.00;;;-5.92;63.64
10832;BME280;5469;48.574;8.768;2022-12-18T01:42:53;95765.09;;;-5.95;63.95
10832;BME280;5469;48.574;8.768;2022-12-18T01:45:30;95768.97;;;-5.73;64.25
10832;BME280;5469;48.574;8.768;2022-12-18T01:48:08;95758.41;;;-5.43;63.52
10832;BME280;5469;48.574;8.768;2022-12-18T01:50:44;95758.63;;;-5.37;63.58
10832;BME280;5469;48.574;8.768;2022-12-18T01:53:21;95761.59;;;-5.67;64.04
10832;BME280;5469;48.574;8.768;2022-12-18T01:55:59;95760.63;;;-5.66;64.11
10832;BME280;5469;48.574;8.768;2022-12-18T01:58:39;95765.06;;;-5.59;63.32
10832;BME280;5469;48.574;8.768;2022-12-18T02:01:16;95747.66;;;-5.31;63.13
10832;BME280;5469;48.574;8.768;2022-12-18T02:03:51;95762.47;;;-6.12;63.96
10832;BME280;5469;48.574;8.768;2022-12-18T02:06:32;95756.81;;;-6.16;63.95
10832;BME280;5469;48.574;8.768;2022-12-18T02:09:13;95764.69;;;-6.18;65.74
10832;BME280;5469;48.574;8.768;2022-12-18T02:11:55;95771.75;;;-5.84;64.26
10832;BME280;5469;48.574;8.768;2022-12-18T02:14:38;95764.19;;;-5.67;64.42
10832;BME280;5469;48.574;8.768;2022-12-18T02:17:18;95757.81;;;-5.99;66.24
10832;BME280;5469;48.574;8.768;2022-12-18T02:20:02;95755.09;;;-5.72;66.14
10832;BME280;5469;48.574;8.768;2022-12-18T02:22:48;95762.28;;;-6.01;66.60
10832;BME280;5469;48.574;8.768;2022-12-18T02:25:40;95762.78;;;-6.61;69.26
10832;BME280;5469;48.574;8.768;2022-12-18T02:28:19;95783.84;;;-7.13;72.08
10832;BME280;5469;48.574;8.768;2022-12-18T02:30:59;95778.69;;;-7.13;72.93
10832;BME280;5469;48.574;8.768;2022-12-18T02:33:37;95783.91;;;-7.52;74.06
10832;BME280;5469;48.574;8.768;2022-12-18T02:36:15;95785.13;;;-7.95;76.43
10832;BME280;5469;48.574;8.768;2022-12-18T02:38:56;95781.47;;;-7.82;79.71
10832;BME280;5469;48.574;8.768;2022-12-18T02:41:32;95782.97;;;-7.70;79.42
10832;BME280;5469;48.574;8.768;2022-12-18T02:44:11;95779.84;;;-7.64;77.95
10832;BME280;5469;48.574;8.768;2022-12-18T02:46:49;95782.81;;;-7.78;79.63
10832;BME280;5469;48.574;8.768;2022-12-18T02:49:34;95788.50;;;-8.04;79.79
10832;BME280;5469;48.574;8.768;2022-12-18T02:52:21;95792.00;;;-8.05;81.32
10832;BME280;5469;48.574;8.768;2022-12-18T02:55:07;95782.75;;;-8.37;82.30
10832;BME280;5469;48.574;8.768;2022-12-18T02:57:48;95779.56;;;-8.19;81.88
10832;BME280;5469;48.574;8.768;2022-12-18T03:00:31;95780.38;;;-8.09;82.90
10832;BME280;5469;48.574;8.768;2022-12-18T03:03:14;95776.28;;;-8.21;82.36
10832;BME280;5469;48.574;8.768;2022-12-18T03:05:55;95774.41;;;-8.00;82.83
10832;BME280;5469;48.574;8.768;2022-12-18T03:08:35;95780.41;;;-7.70;80.66
10832;BME280;5469;48.574;8.768;2022-12-18T03:11:14;95783.63;;;-7.87;81.89
10832;BME280;5469;48.574;8.768;2022-12-18T03:14:10;95788.63;;;-7.76;82.30
10832;BME280;5469;48.574;8.768;2022-12-18T03:16:50;95795.56;;;-7.67;82.09
10832;BME280;5469;48.574;8.768;2022-12-18T03:19:31;95796.78;;;-7.71;83.74
10832;BME280;5469;48.574;8.768;2022-12-18T03:22:09;95802.31;;;-7.95;83.85
10832;BME280;5469;48.574;8.768;2022-12-18T03:24:46;95789.75;;;-7.88;84.39
10832;BME280;5469;48.574;8.768;2022-12-18T03:27:26;95790.94;;;-7.93;84.43
10832;BME280;5469;48.574;8.768;2022-12-18T03:30:07;95791.78;;;-7.82;84.71
10832;BME280;5469;48.574;8.768;2022-12-18T03:32:50;95789.06;;;-7.71;84.27
10832;BME280;5469;48.574;8.768;2022-12-18T03:35:31;95792.03;;;-7.76;84.64
10832;BME280;5469;48.574;8.768;2022-12-18T03:38:08;95790.13;;;-7.64;84.60
10832;BME280;5469;48.574;8.768;2022-12-18T03:40:59;95787.16;;;-7.88;85.83
10832;BME280;5469;48.574;8.768;2022-12-18T03:43:39;95790.94;;;-7.63;85.60
10832;BME280;5469;48.574;8.768;2022-12-18T03:46:20;95794.75;;;-7.77;86.60
10832;BME280;5469;48.574;8.768;2022-12-18T03:49:06;95793.41;;;-7.62;85.60
10832;BME280;5469;48.574;8.768;2022-12-18T03:51:49;95781.19;;;-7.40;85.74
10832;BME280;5469;48.574;8.768;2022-12-18T03:54:26;95789.06;;;-7.52;85.40
10832;BME280;5469;48.574;8.768;2022-12-18T03:57:08;95798.00;;;-7.46;86.21
10832;BME280;5469;48.574;8.768;2022-12-18T03:59:49;95792.84;;;-7.36;85.85
10832;BME280;5469;48.574;8.768;2022-12-18T04:02:26;95793.28;;;-7.04;85.60
10832;BME280;5469;48.574;8.768;2022-12-18T04:05:06;95792.22;;;-7.11;84.42
10832;BME280;5469;48.574;8.768;2022-12-18T04:07:42;95786.19;;;-6.82;81.97
10832;BME280;5469;48.574;8.768;2022-12-18T04:10:19;95785.53;;;-6.94;82.72
10832;BME280;5469;48.574;8.768;2022-12-18T04:13:00;95775.44;;;-7.15;85.10
10832;BME280;5469;48.574;8.768;2022-12-18T04:15:36;95784.00;;;-6.77;83.75
10832;BME280;5469;48.574;8.768;2022-12-18T04:18:12;95803.00;;;-6.78;84.60
10832;BME280;5469;48.574;8.768;2022-12-18T04:20:48;95795.00;;;-6.47;82.73
10832;BME280;5469;48.574;8.768;2022-12-18T04:23:23;95787.19;;;-6.10;80.68
10832;BME280;5469;48.574;8.768;2022-12-18T04:25:58;95792.53;;;-6.39;81.33
10832;BME280;5469;48.574;8.768;2022-12-18T04:28:33;95790.69;;;-6.01;79.50
10832;BME280;5469;48.574;8.768;2022-12-18T04:31:08;95789.06;;;-6.57;81.52
10832;BME280;5469;48.574;8.768;2022-12-18T04:33:43;95787.34;;;-6.39;81.99
10832;BME280;5469;48.574;8.768;2022-12-18T04:36:19;95782.16;;;-6.94;83.60
10832;BME280;5469;48.574;8.768;2022-12-18T04:38:54;95764.72;;;-6.73;84.34
10832;BME280;5469;48.574;8.768;2022-12-18T04:41:29;95773.63;;;-6.95;85.60
10832;BME280;5469;48.574;8.768;2022-12-18T04:44:05;95775.03;;;-6.73;84.75
10832;BME280;5469;48.574;8.768;2022-12-18T04:46:40;95782.25;;;-6.49;82.33
10832;BME280;5469;48.574;8.768;2022-12-18T04:49:15;95773.50;;;-6.66;82.56
10832;BME280;5469;48.574;8.768;2022-12-18T04:51:52;95767.19;;;-6.81;83.12
10832;BME280;5469;48.574;8.768;2022-12-18T04:54:27;95778.28;;;-6.71;85.21
10832;BME280;5469;48.574;8.768;2022-12-18T04:57:02;95781.53;;;-6.69;83.66
10832;BME280;5469;48.574;8.768;2022-12-18T04:59:37;95785.91;;;-6.24;83.19
10832;BME280;5469;48.574;8.768;2022-12-18T05:02:12;95780.81;;;-6.33;82.51
10832;BME280;5469;48.574;8.768;2022-12-18T05:04:47;95781.44;;;-6.49;82.68
10832;BME280;5469;48.574;8.768;2022-12-18T05:07:23;95787.06;;;-6.36;83.74
10832;BME280;5469;48.574;8.768;2022-12-18T05:09:58;95792.19;;;-6.26;82.41
10832;BME280;5469;48.574;8.768;2022-12-18T05:12:33;95801.22;;;-6.40;84.17
10832;BME280;5469;48.574;8.768;2022-12-18T05:15:31;95788.63;;;-6.25;83.32
10832;BME280;5469;48.574;8.768;2022-12-18T05:18:06;95784.06;;;-6.31;83.91
10832;BME280;5469;48.574;8.768;2022-12-18T05:20:42;95785.16;;;-6.34;84.71
10832;BME280;5469;48.574;8.768;2022-12-18T05:23:20;95789.19;;;-6.22;83.66
10832;BME280;5469;48.574;8.768;2022-12-18T05:25:56;95782.88;;;-6.09;83.10
10832;BME280;5469;48.574;8.768;2022-12-18T05:28:34;95788.59;;;-6.16;82.97
10832;BME280;5469;48.574;8.768;2022-12-18T05:31:09;95789.44;;;-6.43;83.94
10832;BME280;5469;48.574;8.768;2022-12-18T05:33:44;95793.56;;;-6.32;84.50
10832;BME280;5469;48.574;8.768;2022-12-18T05:36:19;95782.66;;;-6.26;84.41
10832;BME280;5469;48.574;8.768;2022-12-18T05:38:56;95777.00;;;-6.29;85.39
10832;BME280;5469;48.574;8.768;2022-12-18T05:41:30;95776.06;;;-6.10;83.82
10832;BME280;5469;48.574;8.768;2022-12-18T05:44:05;95773.97;;;-5.89;81.18
10832;BME280;5469;48.574;8.768;2022-12-18T05:46:40;95769.28;;;-6.11;82.71
10832;BME280;5469;48.574;8.768;2022-12-18T05:49:15;95771.78;;;-6.20;83.15
10832;BME280;5469;48.574;8.768;2022-12-18T05:51:50;95766.31;;;-5.81;80.38
10832;BME280;5469;48.574;8.768;2022-12-18T05:54:28;95765.88;;;-5.94;80.67
10832;BME280;5469;48.574;8.768;2022-12-18T05:57:04;95780.19;;;-5.82;79.37
10832;BME280;5469;48.574;8.768;2022-12-18T05:59:39;95790.41;;;-6.26;79.62
10832;BME280;5469;48.574;8.768;2022-12-18T06:02:14;95779.81;;;-6.05;79.40
10832;BME280;5469;48.574;8.768;2022-12-18T06:04:49;95772.28;;;-6.16;79.66
10832;BME280;5469;48.574;8.768;2022-12-18T06:07:24;95780.34;;;-6.01;78.45
10832;BME280;5469;48.574;8.768;2022-12-18T06:10:00;95797.75;;;-6.03;77.83
10832;BME280;5469;48.574;8.768;2022-12-18T06:12:35;95796.19;;;-6.14;77.96
10832;BME280;5469;48.574;8.768;2022-12-18T06:15:11;95787.72;;;-6.06;78.17
10832;BME280;5469;48.574;8.768;2022-12-18T06:17:46;95794.50;;;-6.05;78.27
10832;BME280;5469;48.574;8.768;2022-12-18T06:20:22;95796.03;;;-5.41;74.87
10832;BME280;5469;48.574;8.768;2022-12-18T06:22:57;95807.47;;;-5.61;75.53
10832;BME280;5469;48.574;8.768;2022-12-18T06:25:36;95806.91;;;-5.73;75.01
10832;BME280;5469;48.574;8.768;2022-12-18T06:28:11;95819.84;;;-6.19;77.68
10832;BME280;5469;48.574;8.768;2022-12-18T06:30:46;95821.84;;;-6.40;78.39
10832;BME280;5469;48.574;8.768;2022-12-18T06:33:25;95827.19;;;-6.24;78.71
10832;BME280;5469;48.574;8.768;2022-12-18T06:36:02;95824.88;;;-6.54;79.41
10832;BME280;5469;48.574;8.768;2022-12-18T06:38:40;95827.06;;;-6.60;79.96
10832;BME280;5469;48.574;8.768;2022-12-18T06:41:20;95828.78;;;-6.41;79.96
10832;BME280;5469;48.574;8.768;2022-12-18T06:43:55;95831.78;;;-6.18;78.97
10832;BME280;5469;48.574;8.768;2022-12-18T06:46:31;95828.72;;;-6.03;76.80
10832;BME280;5469;48.574;8.768;2022-12-18T06:49:06;95828.72;;;-6.58;79.20
10832;BME280;5469;48.574;8.768;2022-12-18T06:51:42;95827.28;;;-6.16;76.62
10832;BME280;5469;48.574;8.768;2022-12-18T06:54:17;95833.34;;;-6.72;80.30
10832;BME280;5469;48.574;8.768;2022-12-18T06:56:53;95846.31;;;-6.17;77.97
10832;BME280;5469;48.574;8.768;2022-12-18T06:59:28;95845.34;;;-6.16;76.55
10832;BME280;5469;48.574;8.768;2022-12-18T07:02:03;95843.13;;;-5.83;75.81
10832;BME280;5469;48.574;8.768;2022-12-18T07:04:39;95857.88;;;-6.48;78.60
10832;BME280;5469;48.574;8.768;2022-12-18T07:07:14;95848.06;;;-5.72;75.95
10832;BME280;5469;48.574;8.768;2022-12-18T07:09:50;95856.69;;;-6.64;80.52
10832;BME280;5469;48.574;8.768;2022-12-18T07:12:28;95861.22;;;-6.38;80.57
10832;BME280;5469;48.574;8.768;2022-12-18T07:15:04;95860.22;;;-6.65;81.92
10832;BME280;5469;48.574;8.768;2022-12-18T07:17:39;95863.84;;;-6.48;80.68
10832;BME280;5469;48.574;8.768;2022-12-18T07:20:14;95863.06;;;-6.30;80.71
10832;BME280;5469;48.574;8.768;2022-12-18T07:22:49;95861.22;;;-6.38;80.99
10832;BME280;5469;48.574;8.768;2022-12-18T07:25:25;95856.06;;;-6.38;80.82
10832;BME280;5469;48.574;8.768;2022-12-18T07:28:02;95853.78;;;-6.13;80.38
10832;BME280;5469;48.574;8.768;2022-12-18T07:30:38;95856.06;;;-6.38;80.67
10832;BME280;5469;48.574;8.768;2022-12-18T07:33:13;95855.69;;;-6.16;80.65
10832;BME280;5469;48.574;8.768;2022-12-18T07:35:48;95861.69;;;-5.97;78.59
10832;BME280;5469;48.574;8.768;2022-12-18T07:38:23;95857.41;;;-5.88;78.25
10832;BME280;5469;48.574;8.768;2022-12-18T07:41:02;95853.31;;;-5.99;78.10
10832;BME280;5469;48.574;8.768;2022-12-18T07:43:40;95857.50;;;-5.98;79.31
10832;BME280;5469;48.574;8.768;2022-12-18T07:46:16;95859.41;;;-6.00;80.31
10832;BME280;5469;48.574;8.768;2022-12-18T07:48:51;95853.06;;;-5.88;79.21
10832;BME280;5469;48.574;8.768;2022-12-18T07:51:26;95863.63;;;-5.99;79.71
10832;BME280;5469;48.574;8.768;2022-12-18T07:54:00;95857.81;;;-5.65;79.03
10832;BME280;5469;48.574;8.768;2022-12-18T07:56:35;95871.06;;;-5.96;81.35
10832;BME280;5469;48.574;8.768;2022-12-18T07:59:12;95867.94;;;-5.54;78.89
10832;BME280;5469;48.574;8.768;2022-12-18T08:01:47;95865.28;;;-5.90;80.48
10832;BME280;5469;48.574;8.768;2022-12-18T08:04:22;95867.84;;;-5.62;79.11
10832;BME280;5469;48.574;8.768;2022-12-18T08:06:57;95873.88;;;-5.72;81.11
10832;BME280;5469;48.574;8.768;2022-12-18T08:09:32;95866.34;;;-5.83;81.59
10832;BME280;5469;48.574;8.768;2022-12-18T08:12:07;95865.09;;;-5.79;81.98
10832;BME280;5469;48.574;8.768;2022-12-18T08:14:44;95876.00;;;-5.85;81.64
10832;BME280;5469;48.574;8.768;2022-12-18T08:17:20;95874.03;;;-5.55;81.88
10832;BME280;5469;48.574;8.768;2022-12-18T08:19:55;95881.72;;;-5.63;82.30
10832;BME280;5469;48.574;8.768;2022-12-18T08:22:30;95872.44;;;-5.56;82.20
10832;BME280;5469;48.574;8.768;2022-12-18T08:25:07;95875.94;;;-4.86;79.34
10832;BME280;5469;48.574;8.768;2022-12-18T08:27:42;95863.66;;;-4.84;78.83
10832;BME280;5469;48.574;8.768;2022-12-18T08:30:19;95868.22;;;-4.77;79.05
10832;BME280;5469;48.574;8.768;2022-12-18T08:32:54;95867.31;;;-5.12;81.07
10832;BME280;5469;48.574;8.768;2022-12-18T08:35:29;95882.31;;;-4.98;80.19
10832;BME280;5469;48.574;8.768;2022-12-18T08:38:04;95872.50;;;-4.68;79.61
10832;BME280;5469;48.574;8.768;2022-12-18T08:40:39;95869.25;;;-4.70;79.78
10832;BME280;5469;48.574;8.768;2022-12-18T08:43:14;95864.78;;;-4.60;79.89
10832;BME280;5469;48.574;8.768;2022-12-18T08:46:08;95854.16;;;-4.49;79.37
10832;BME280;5469;48.574;8.768;2022-12-18T08:48:44;95854.50;;;-4.44;80.28
10832;BME280;5469;48.574;8.768;2022-12-18T08:51:20;95845.06;;;-4.27;78.95
10832;BME280;5469;48.574;8.768;2022-12-18T08:53:55;95849.44;;;-4.27;79.46
10832;BME280;5469;48.574;8.768;2022-12-18T08:56:30;95851.13;;;-4.44;80.18
10832;BME280;5469;48.574;8.768;2022-12-18T08:59:05;95847.66;;;-4.27;80.01
10832;BME280;5469;48.574;8.768;2022-12-18T09:01:42;95845.63;;;-4.15;78.69
10832;BME280;5469;48.574;8.768;2022-12-18T09:04:17;95837.44;;;-4.28;79.77
10832;BME280;5469;48.574;8.768;2022-12-18T09:06:52;95837.09;;;-3.99;78.32
10832;BME280;5469;48.574;8.768;2022-12-18T09:09:30;95837.97;;;-4.25;78.97
10832;BME280;5469;48.574;8.768;2022-12-18T09:12:05;95837.00;;;-3.73;78.08
10832;BME280;5469;48.574;8.768;2022-12-18T09:14:40;95841.88;;;-3.70;77.68
10832;BME280;5469;48.574;8.768;2022-12-18T09:17:16;95838.25;;;-3.93;79.28
10832;BME280;5469;48.574;8.768;2022-12-18T09:19:51;95838.03;;;-3.17;75.33
10832;BME280;5469;48.574;8.768;2022-12-18T09:22:26;95841.69;;;-2.46;74.83
10832;BME280;5469;48.574;8.768;2022-12-18T09:25:01;95830.56;;;-1.76;71.95
10832;BME280;5469;48.574;8.768;2022-12-18T09:27:36;95838.97;;;-1.65;72.77
10832;BME280;5469;48.574;8.768;2022-12-18T09:30:12;95843.56;;;-1.76;71.09
10832;BME280;5469;48.574;8.768;2022-12-18T09:32:48;95833.31;;;-1.00;67.30
10832;BME280;5469;48.574;8.768;2022-12-18T09:35:23;95829.53;;;-1.66;68.78
10832;BME280;5469;48.574;8.768;2022-12-18T09:37:58;95828.06;;;-1.61;67.72
10832;BME280;5469;48.574;8.768;2022-12-18T09:40:36;95831.50;;;-0.32;68.51
10832;BME280;5469;48.574;8.768;2022-12-18T09:43:17;95830.91;;;-1.24;66.95
10832;BME280;5469;48.574;8.768;2022-12-18T09:45:57;95818.28;;;-0.01;69.04
10832;BME280;5469;48.574;8.768;2022-12-18T09:48:38;95832.47;;;0.27;64.98
10832;BME280;5469;48.574;8.768;2022-12-18T09:51:18;95833.84;;;-0.67;65.89
10832;BME280;5469;48.574;8.768;2022-12-18T09:53:58;95841.38;;;-0.72;65.23
10832;BME280;5469;48.574;8.768;2022-12-18T09:56:39;95832.06;;;0.08;64.88
10832;BME280;5469;48.574;8.768;2022-12-18T09:59:22;95834.56;;;0.53;63.17
10832;BME280;5469;48.574;8.768;2022-12-18T10:01:58;95838.88;;;0.24;63.23
10832;BME280;5469;48.574;8.768;2022-12-18T10:04:35;95839.31;;;0.13;63.92
10832;BME280;5469;48.574;8.768;2022-12-18T10:07:15;95838.75;;;1.12;63.56
10832;BME280;5469;48.574;8.768;2022-12-18T10:09:58;95835.03;;;0.41;62.91
10832;BME280;5469;48.574;8.768;2022-12-18T10:12:41;95833.09;;;1.08;61.56
10832;BME280;5469;48.574;8.768;2022-12-18T10:15:23;95820.72;;;2.89;59.93
10832;BME280;5469;48.574;8.768;2022-12-18T10:18:02;95829.19;;;3.44;57.74
10832;BME280;5469;48.574;8.768;2022-12-18T10:20:46;95828.38;;;2.97;56.83
10832;BME280;5469;48.574;8.768;2022-12-18T10:23:28;95833.03;;;3.42;54.76
10832;BME280;5469;48.574;8.768;2022-12-18T10:26:09;95832.59;;;3.78;53.75
10832;BME280;5469;48.574;8.768;2022-12-18T10:28:45;95825.50;;;4.89;56.09
10832;BME280;5469;48.574;8.768;2022-12-18T10:31:22;95829.81;;;3.46;53.47
10832;BME280;5469;48.574;8.768;2022-12-18T10:33:58;95829.19;;;3.31;55.42
10832;BME280;5469;48.574;8.768;2022-12-18T10:36:34;95829.81;;;2.93;56.68
10832;BME280;5469;48.574;8.768;2022-12-18T10:39:19;95825.53;;;2.79;57.15
10832;BME280;5469;48.574;8.768;2022-12-18T10:42:10;95822.53;;;3.09;56.77
10832;BME280;5469;48.574;8.768;2022-12-18T10:44:45;95824.38;;;3.41;55.33
10832;BME280;5469;48.574;8.768;2022-12-18T10:47:20;95823.97;;;2.23;58.22
10832;BME280;5469;48.574;8.768;2022-12-18T10:49:55;95806.56;;;2.63;56.64
10832;BME280;5469;48.574;8.768;2022-12-18T10:52:33;95806.59;;;3.50;53.60
10832;BME280;5469;48.574;8.768;2022-12-18T10:55:17;95809.06;;;2.98;55.88
10832;BME280;5469;48.574;8.768;2022-12-18T10:57:53;95800.53;;;3.63;55.29
10832;BME280;5469;48.574;8.768;2022-12-18T11:00:30;95805.41;;;2.99;54.97
10832;BME280;5469;48.574;8.768;2022-12-18T11:03:31;95798.19;;;4.58;51.06
10832;BME280;5469;48.574;8.768;2022-12-18T11:06:10;95798.38;;;4.95;51.07
10832;BME280;5469;48.574;8.768;2022-12-18T11:11:24;95807.28;;;5.94;47.51
10832;BME280;5469;48.574;8.768;2022-12-18T11:14:04;95802.19;;;5.74;48.61
10832;BME280;5469;48.574;8.768;2022-12-18T11:16:46;95800.31;;;5.56;48.36
10832;BME280;5469;48.574;8.768;2022-12-18T11:19:28;95796.16;;;6.10;46.30
10832;BME280;5469;48.574;8.768;2022-12-18T11:22:18;95803.84;;;5.18;49.11
10832;BME280;5469;48.574;8.768;2022-12-18T11:24:56;95796.47;;;6.81;47.86
10832;BME280;5469;48.574;8.768;2022-12-18T11:27:34;95786.44;;;7.02;45.33
10832;BME280;5469;48.574;8.768;2022-12-18T11:30:15;95783.84;;;7.96;45.25
10832;BME280;5469;48.574;8.768;2022-12-18T11:32:58;95773.00;;;8.61;45.12
10832;BME280;5469;48.574;8.768;2022-12-18T11:35:42;95767.63;;;9.86;43.06
10832;BME280;5469;48.574;8.768;2022-12-18T11:38:23;95761.84;;;7.55;44.02
10832;BME280;5469;48.574;8.768;2022-12-18T11:41:02;95762.97;;;7.82;43.70
10832;BME280;5469;48.574;8.768;2022-12-18T11:43:44;95756.56;;;8.30;43.99
10832;BME280;5469;48.574;8.768;2022-12-18T11:46:30;95765.16;;;7.97;44.82
10832;BME280;5469;48.574;8.768;2022-12-18T11:49:11;95764.22;;;9.91;42.42
10832;BME280;5469;48.574;8.768;2022-12-18T11:51:52;95774.44;;;8.52;42.48
10832;BME280;5469;48.574;8.768;2022-12-18T11:54:29;95780.59;;;9.88;42.45
10832;BME280;5469;48.574;8.768;2022-12-18T11:57:11;95780.38;;;9.72;39.82
10832;BME280;5469;48.574;8.768;2022-12-18T11:59:58;95776.16;;;10.32;41.84
10832;BME280;5469;48.574;8.768;2022-12-18T12:02:46;95761.50;;;7.51;41.98
10832;BME280;5469;48.574;8.768;2022-12-18T12:05:30;95763.94;;;8.86;42.68
10832;BME280;5469;48.574;8.768;2022-12-18T12:08:14;95765.19;;;7.27;43.86
10832;BME280;5469;48.574;8.768;2022-12-18T12:10:58;95753.63;;;8.15;43.60
10832;BME280;5469;48.574;8.768;2022-12-18T12:13:44;95755.19;;;7.17;45.16
10832;BME280;5469;48.574;8.768;2022-12-18T12:16:27;95752.75;;;7.04;45.78
10832;BME280;5469;48.574;8.768;2022-12-18T12:19:15;95743.59;;;7.65;44.88
10832;BME280;5469;48.574;8.768;2022-12-18T12:21:58;95745.34;;;7.24;46.75
10832;BME280;5469;48.574;8.768;2022-12-18T12:24:44;95735.34;;;7.73;44.94
10832;BME280;5469;48.574;8.768;2022-12-18T12:27:29;95744.94;;;8.03;44.60
10832;BME280;5469;48.574;8.768;2022-12-18T12:30:11;95745.22;;;7.42;44.36
10832;BME280;5469;48.574;8.768;2022-12-18T12:32:58;95739.50;;;7.22;47.78
10832;BME280;5469;48.574;8.768;2022-12-18T12:35:42;95747.00;;;8.01;43.94
10832;BME280;5469;48.574;8.768;2022-12-18T12:38:24;95751.69;;;8.10;44.75
10832;BME280;5469;48.574;8.768;2022-12-18T12:41:01;95758.53;;;6.70;45.57
10832;BME280;5469;48.574;8.768;2022-12-18T12:43:41;95756.69;;;6.71;45.84
10832;BME280;5469;48.574;8.768;2022-12-18T12:46:21;95756.06;;;5.72;48.04
10832;BME280;5469;48.574;8.768;2022-12-18T12:49:00;95747.72;;;7.26;50.41
10832;BME280;5469;48.574;8.768;2022-12-18T12:51:38;95762.56;;;5.25;49.16
10832;BME280;5469;48.574;8.768;2022-12-18T12:54:18;95776.03;;;6.65;53.16
10832;BME280;5469;48.574;8.768;2022-12-18T12:57:00;95779.00;;;6.98;53.10
10832;BME280;5469;48.574;8.768;2022-12-18T12:59:40;95765.06;;;7.21;49.86
10832;BME280;5469;48.574;8.768;2022-12-18T13:02:25;95775.84;;;6.18;48.74
10832;BME280;5469;48.574;8.768;2022-12-18T13:05:11;95770.94;;;6.51;51.12
10832;BME280;5469;48.574;8.768;2022-12-18T13:07:55;95768.88;;;6.84;57.24
10832;BME280;5469;48.574;8.768;2022-12-18T13:10:36;95769.63;;;5.00;50.61
10832;BME280;5469;48.574;8.768;2022-12-18T13:13:14;95765.38;;;3.90;52.08
10832;BME280;5469;48.574;8.768;2022-12-18T13:16:03;95766.38;;;5.30;50.21
10832;BME280;5469;48.574;8.768;2022-12-18T13:18:40;95758.25;;;6.30;50.90
10832;BME280;5469;48.574;8.768;2022-12-18T13:21:27;95764.06;;;4.90;50.24
10832;BME280;5469;48.574;8.768;2022-12-18T13:24:20;95767.03;;;3.78;52.39
10832;BME280;5469;48.574;8.768;2022-12-18T13:26:57;95771.50;;;4.61;54.25
10832;BME280;5469;48.574;8.768;2022-12-18T13:29:44;95768.25;;;3.82;52.46
10832;BME280;5469;48.574;8.768;2022-12-18T13:32:25;95775.50;;;3.80;52.86
10832;BME280;5469;48.574;8.768;2022-12-18T13:38:23;95762.84;;;4.22;52.69
10832;BME280;5469;48.574;8.768;2022-12-18T13:41:22;95762.28;;;3.35;55.90
10832;BME280;5469;48.574;8.768;2022-12-18T13:44:07;95759.00;;;3.60;56.44
10832;BME280;5469;48.574;8.768;2022-12-18T13:46:47;95763.09;;;3.02;55.49
10832;BME280;5469;48.574;8.768;2022-12-18T13:49:25;95753.56;;;4.58;54.44
10832;BME280;5469;48.574;8.768;2022-12-18T13:52:02;95762.22;;;4.65;53.86
10832;BME280;5469;48.574;8.768;2022-12-18T13:54:50;95768.28;;;4.59;53.48
10832;BME280;5469;48.574;8.768;2022-12-18T13:57:31;95766.84;;;4.31;58.27
10832;BME280;5469;48.574;8.768;2022-12-18T14:00:24;95760.09;;;5.06;67.59
10832;BME280;5469;48.574;8.768;2022-12-18T14:03:00;95763.00;;;5.22;68.58
10832;BME280;5469;48.574;8.768;2022-12-18T14:05:37;95762.88;;;5.36;68.84
10832;BME280;5469;48.574;8.768;2022-12-18T14:08:14;95761.41;;;5.21;62.68
10832;BME280;5469;48.574;8.768;2022-12-18T14:10:52;95764.66;;;4.60;56.75
10832;BME280;5469;48.574;8.768;2022-12-18T14:13:30;95766.72;;;4.51;60.47
10832;BME280;5469;48.574;8.768;2022-12-18T14:16:11;95763.09;;;3.29;53.34
10832;BME280;5469;48.574;8.768;2022-12-18T14:18:50;95764.16;;;4.00;60.37
10832;BME280;5469;48.574;8.768;2022-12-18T14:21:30;95766.97;;;4.05;57.95